sensor_id;sensor_type;location;lat;lon;timestamp;P1;durP1;ratioP1;P2;durP2;ratioP2
7253;SDS011;4060;49.186;9.226;2023-09-08T00:00:06;6.80;;;4.10;;
7253;SDS011;4060;49.186;9.226;2023-09-08T00:02:36;4.32;;;3.95;;
7253;SDS011;4060;49.186;9.226;2023-09-08T00:05:06;5.25;;;4.43;;
7253;SDS011;4060;49.186;9.226;2023-09-08T00:07:36;4.32;;;3.92;;
7253;SDS011;4060;49.186;9.226;2023-09-08T00:10:06;4.97;;;3.72;;
7253;SDS011;4060;49.186;9.226;2023-09-08T00:12:36;4.85;;;4.32;;
7253;SDS011;4060;49.186;9.226;2023-09-08T00:15:08;4.68;;;4.18;;
7253;SDS011;4060;49.186;9.226;2023-09-08T00:17:38;4.75;;;3.95;;
7253;SDS011;4060;49.186;9.226;2023-09-08T00:20:08;4.97;;;3.95;;
7253;SDS011;4060;49.186;9.226;2023-09-08T00:22:39;4.70;;;4.20;;
7253;SDS011;4060;49.186;9.226;2023-09-08T00:25:09;4.80;;;4.32;;
7253;SDS011;4060;49.186;9.226;2023-09-08T00:27:38;4.68;;;4.13;;
7253;SDS011;4060;49.186;9.226;2023-09-08T00:30:12;4.97;;;4.47;;
7253;SDS011;4060;49.186;9.226;2023-09-08T00:32:41;5.90;;;4.75;;
7253;SDS011;4060;49.186;9.226;2023-09-08T00:35:11;6.15;;;4.78;;
7253;SDS011;4060;49.186;9.226;2023-09-08T00:37:41;5.63;;;4.22;;
7253;SDS011;4060;49.186;9.226;2023-09-08T00:40:10;6.70;;;5.05;;
7253;SDS011;4060;49.186;9.226;2023-09-08T00:42:41;5.72;;;4.70;;
7253;SDS011;4060;49.186;9.226;2023-09-08T00:45:13;6.30;;;4.85;;
7253;SDS011;4060;49.186;9.226;2023-09-08T00:47:43;6.32;;;4.78;;
7253;SDS011;4060;49.186;9.226;2023-09-08T00:50:12;5.03;;;4.53;;
7253;SDS011;4060;49.186;9.226;2023-09-08T00:52:42;5.38;;;4.75;;
7253;SDS011;4060;49.186;9.226;2023-09-08T00:55:11;5.18;;;4.68;;
7253;SDS011;4060;49.186;9.226;2023-09-08T00:57:41;6.15;;;4.93;;
7253;SDS011;4060;49.186;9.226;2023-09-08T01:00:11;8.80;;;5.00;;
7253;SDS011;4060;49.186;9.226;2023-09-08T01:02:43;5.22;;;4.72;;
7253;SDS011;4060;49.186;9.226;2023-09-08T01:05:14;4.63;;;4.18;;
7253;SDS011;4060;49.186;9.226;2023-09-08T01:07:45;5.53;;;4.65;;
7253;SDS011;4060;49.186;9.226;2023-09-08T01:10:15;4.90;;;4.47;;
7253;SDS011;4060;49.186;9.226;2023-09-08T01:12:45;5.35;;;4.85;;
7253;SDS011;4060;49.186;9.226;2023-09-08T01:15:17;6.50;;;5.00;;
7253;SDS011;4060;49.186;9.226;2023-09-08T01:17:46;4.88;;;4.40;;
7253;SDS011;4060;49.186;9.226;2023-09-08T01:20:17;4.95;;;4.55;;
7253;SDS011;4060;49.186;9.226;2023-09-08T01:22:58;4.50;;;4.10;;
7253;SDS011;4060;49.186;9.226;2023-09-08T01:25:42;5.90;;;4.80;;
7253;SDS011;4060;49.186;9.226;2023-09-08T01:28:19;4.65;;;4.18;;
7253;SDS011;4060;49.186;9.226;2023-09-08T01:30:50;5.38;;;4.70;;
7253;SDS011;4060;49.186;9.226;2023-09-08T01:33:21;5.07;;;4.63;;
7253;SDS011;4060;49.186;9.226;2023-09-08T01:35:51;5.55;;;5.00;;
7253;SDS011;4060;49.186;9.226;2023-09-08T01:38:21;6.55;;;4.80;;
7253;SDS011;4060;49.186;9.226;2023-09-08T01:40:54;5.00;;;4.60;;
7253;SDS011;4060;49.186;9.226;2023-09-08T01:43:23;5.15;;;4.63;;
7253;SDS011;4060;49.186;9.226;2023-09-08T01:45:53;5.10;;;4.60;;
7253;SDS011;4060;49.186;9.226;2023-09-08T01:48:23;6.03;;;4.72;;
7253;SDS011;4060;49.186;9.226;2023-09-08T01:50:53;5.05;;;4.38;;
7253;SDS011;4060;49.186;9.226;2023-09-08T01:53:22;5.82;;;4.60;;
7253;SDS011;4060;49.186;9.226;2023-09-08T01:55:51;4.93;;;4.22;;
7253;SDS011;4060;49.186;9.226;2023-09-08T01:58:22;5.13;;;4.50;;
7253;SDS011;4060;49.186;9.226;2023-09-08T02:00:51;4.50;;;4.10;;
7253;SDS011;4060;49.186;9.226;2023-09-08T02:03:26;5.13;;;4.72;;
7253;SDS011;4060;49.186;9.226;2023-09-08T02:05:57;4.80;;;4.38;;
7253;SDS011;4060;49.186;9.226;2023-09-08T02:08:26;4.90;;;4.50;;
7253;SDS011;4060;49.186;9.226;2023-09-08T02:10:57;4.47;;;4.05;;
7253;SDS011;4060;49.186;9.226;2023-09-08T02:13:27;7.05;;;4.47;;
7253;SDS011;4060;49.186;9.226;2023-09-08T02:15:57;4.13;;;3.83;;
7253;SDS011;4060;49.186;9.226;2023-09-08T02:18:26;4.93;;;4.43;;
7253;SDS011;4060;49.186;9.226;2023-09-08T02:20:56;4.97;;;4.30;;
7253;SDS011;4060;49.186;9.226;2023-09-08T02:23:26;5.13;;;4.63;;
7253;SDS011;4060;49.186;9.226;2023-09-08T02:25:58;5.25;;;4.60;;
7253;SDS011;4060;49.186;9.226;2023-09-08T02:28:28;5.00;;;4.50;;
7253;SDS011;4060;49.186;9.226;2023-09-08T02:30:57;5.78;;;4.80;;
7253;SDS011;4060;49.186;9.226;2023-09-08T02:33:27;4.70;;;4.30;;
7253;SDS011;4060;49.186;9.226;2023-09-08T02:36:01;5.10;;;4.60;;
7253;SDS011;4060;49.186;9.226;2023-09-08T02:38:31;5.05;;;4.65;;
7253;SDS011;4060;49.186;9.226;2023-09-08T02:41:03;5.30;;;4.35;;
7253;SDS011;4060;49.186;9.226;2023-09-08T02:43:32;4.75;;;4.22;;
7253;SDS011;4060;49.186;9.226;2023-09-08T02:46:02;4.90;;;4.50;;
7253;SDS011;4060;49.186;9.226;2023-09-08T02:48:32;4.97;;;4.47;;
7253;SDS011;4060;49.186;9.226;2023-09-08T02:51:02;5.35;;;4.82;;
7253;SDS011;4060;49.186;9.226;2023-09-08T02:53:32;4.90;;;4.43;;
7253;SDS011;4060;49.186;9.226;2023-09-08T02:56:03;4.95;;;4.22;;
7253;SDS011;4060;49.186;9.226;2023-09-08T02:58:33;5.45;;;4.93;;
7253;SDS011;4060;49.186;9.226;2023-09-08T03:01:12;4.35;;;3.88;;
7253;SDS011;4060;49.186;9.226;2023-09-08T03:03:42;4.93;;;4.53;;
7253;SDS011;4060;49.186;9.226;2023-09-08T03:06:14;4.93;;;4.53;;
7253;SDS011;4060;49.186;9.226;2023-09-08T03:08:48;7.30;;;5.10;;
7253;SDS011;4060;49.186;9.226;2023-09-08T03:11:19;4.93;;;4.53;;
7253;SDS011;4060;49.186;9.226;2023-09-08T03:13:48;5.45;;;4.72;;
7253;SDS011;4060;49.186;9.226;2023-09-08T03:16:18;4.95;;;4.25;;
7253;SDS011;4060;49.186;9.226;2023-09-08T03:18:47;4.78;;;4.38;;
7253;SDS011;4060;49.186;9.226;2023-09-08T03:21:17;5.22;;;4.70;;
7253;SDS011;4060;49.186;9.226;2023-09-08T03:23:47;5.38;;;4.47;;
7253;SDS011;4060;49.186;9.226;2023-09-08T03:26:17;5.47;;;5.03;;
7253;SDS011;4060;49.186;9.226;2023-09-08T03:28:48;5.18;;;4.78;;
7253;SDS011;4060;49.186;9.226;2023-09-08T03:31:18;5.63;;;4.57;;
7253;SDS011;4060;49.186;9.226;2023-09-08T03:33:48;5.22;;;4.75;;
7253;SDS011;4060;49.186;9.226;2023-09-08T03:36:19;6.38;;;4.85;;
7253;SDS011;4060;49.186;9.226;2023-09-08T03:38:49;5.15;;;4.55;;
7253;SDS011;4060;49.186;9.226;2023-09-08T03:41:21;4.85;;;4.45;;
7253;SDS011;4060;49.186;9.226;2023-09-08T03:43:50;5.10;;;4.57;;
7253;SDS011;4060;49.186;9.226;2023-09-08T03:46:20;5.07;;;4.00;;
7253;SDS011;4060;49.186;9.226;2023-09-08T03:48:50;5.47;;;4.65;;
7253;SDS011;4060;49.186;9.226;2023-09-08T03:51:25;4.93;;;4.53;;
7253;SDS011;4060;49.186;9.226;2023-09-08T03:53:55;4.50;;;4.10;;
7253;SDS011;4060;49.186;9.226;2023-09-08T03:56:26;5.45;;;4.85;;
7253;SDS011;4060;49.186;9.226;2023-09-08T03:58:56;4.82;;;4.43;;
7253;SDS011;4060;49.186;9.226;2023-09-08T04:01:26;4.80;;;4.40;;
7253;SDS011;4060;49.186;9.226;2023-09-08T04:03:55;5.30;;;4.80;;
7253;SDS011;4060;49.186;9.226;2023-09-08T04:06:26;5.50;;;4.63;;
7253;SDS011;4060;49.186;9.226;2023-09-08T04:08:56;4.97;;;4.50;;
7253;SDS011;4060;49.186;9.226;2023-09-08T04:11:28;5.43;;;4.85;;
7253;SDS011;4060;49.186;9.226;2023-09-08T04:13:58;5.68;;;4.88;;
7253;SDS011;4060;49.186;9.226;2023-09-08T04:16:27;7.00;;;4.85;;
7253;SDS011;4060;49.186;9.226;2023-09-08T04:18:57;4.45;;;4.07;;
7253;SDS011;4060;49.186;9.226;2023-09-08T04:21:26;4.82;;;4.43;;
7253;SDS011;4060;49.186;9.226;2023-09-08T04:23:56;5.60;;;5.00;;
7253;SDS011;4060;49.186;9.226;2023-09-08T04:26:27;4.90;;;4.50;;
7253;SDS011;4060;49.186;9.226;2023-09-08T04:28:57;4.50;;;4.10;;
7253;SDS011;4060;49.186;9.226;2023-09-08T04:31:26;5.35;;;4.70;;
7253;SDS011;4060;49.186;9.226;2023-09-08T04:33:56;5.07;;;4.57;;
7253;SDS011;4060;49.186;9.226;2023-09-08T04:36:25;5.97;;;5.10;;
7253;SDS011;4060;49.186;9.226;2023-09-08T04:38:56;5.03;;;4.40;;
7253;SDS011;4060;49.186;9.226;2023-09-08T04:41:27;7.57;;;5.40;;
7253;SDS011;4060;49.186;9.226;2023-09-08T04:43:57;6.18;;;5.00;;
7253;SDS011;4060;49.186;9.226;2023-09-08T04:46:27;5.75;;;5.25;;
7253;SDS011;4060;49.186;9.226;2023-09-08T04:48:56;7.07;;;5.20;;
7253;SDS011;4060;49.186;9.226;2023-09-08T04:51:26;6.32;;;5.43;;
7253;SDS011;4060;49.186;9.226;2023-09-08T04:53:56;5.45;;;5.00;;
7253;SDS011;4060;49.186;9.226;2023-09-08T04:56:28;5.22;;;4.40;;
7253;SDS011;4060;49.186;9.226;2023-09-08T04:58:57;6.15;;;5.03;;
7253;SDS011;4060;49.186;9.226;2023-09-08T05:01:27;5.20;;;4.68;;
7253;SDS011;4060;49.186;9.226;2023-09-08T05:03:58;5.35;;;4.85;;
7253;SDS011;4060;49.186;9.226;2023-09-08T05:06:28;5.30;;;4.90;;
7253;SDS011;4060;49.186;9.226;2023-09-08T05:08:58;5.70;;;4.82;;
7253;SDS011;4060;49.186;9.226;2023-09-08T05:11:29;5.95;;;4.85;;
7253;SDS011;4060;49.186;9.226;2023-09-08T05:13:59;5.72;;;4.78;;
7253;SDS011;4060;49.186;9.226;2023-09-08T05:16:29;5.45;;;4.75;;
7253;SDS011;4060;49.186;9.226;2023-09-08T05:19:12;6.80;;;5.10;;
7253;SDS011;4060;49.186;9.226;2023-09-08T05:21:42;5.75;;;5.25;;
7253;SDS011;4060;49.186;9.226;2023-09-08T05:24:12;6.47;;;5.47;;
7253;SDS011;4060;49.186;9.226;2023-09-08T05:26:43;5.70;;;5.20;;
7253;SDS011;4060;49.186;9.226;2023-09-08T05:29:13;5.70;;;5.20;;
7253;SDS011;4060;49.186;9.226;2023-09-08T05:31:42;5.53;;;5.00;;
7253;SDS011;4060;49.186;9.226;2023-09-08T05:34:12;5.32;;;4.82;;
7253;SDS011;4060;49.186;9.226;2023-09-08T05:36:42;5.50;;;5.00;;
7253;SDS011;4060;49.186;9.226;2023-09-08T05:39:13;5.72;;;5.22;;
7253;SDS011;4060;49.186;9.226;2023-09-08T05:41:47;6.05;;;5.35;;
7253;SDS011;4060;49.186;9.226;2023-09-08T05:44:16;6.28;;;5.68;;
7253;SDS011;4060;49.186;9.226;2023-09-08T05:46:45;6.10;;;5.50;;
7253;SDS011;4060;49.186;9.226;2023-09-08T05:49:15;5.78;;;5.28;;
7253;SDS011;4060;49.186;9.226;2023-09-08T05:51:45;6.38;;;5.72;;
7253;SDS011;4060;49.186;9.226;2023-09-08T05:54:15;6.15;;;5.35;;
7253;SDS011;4060;49.186;9.226;2023-09-08T05:56:47;6.50;;;5.90;;
7253;SDS011;4060;49.186;9.226;2023-09-08T05:59:17;6.93;;;6.22;;
7253;SDS011;4060;49.186;9.226;2023-09-08T06:01:46;6.60;;;5.97;;
7253;SDS011;4060;49.186;9.226;2023-09-08T06:04:16;6.82;;;5.75;;
7253;SDS011;4060;49.186;9.226;2023-09-08T06:06:45;5.80;;;5.30;;
7253;SDS011;4060;49.186;9.226;2023-09-08T06:09:14;6.72;;;6.13;;
7253;SDS011;4060;49.186;9.226;2023-09-08T06:11:43;6.68;;;5.38;;
7253;SDS011;4060;49.186;9.226;2023-09-08T06:14:16;6.15;;;5.55;;
7253;SDS011;4060;49.186;9.226;2023-09-08T06:16:45;6.40;;;5.80;;
7253;SDS011;4060;49.186;9.226;2023-09-08T06:19:15;6.85;;;6.15;;
7253;SDS011;4060;49.186;9.226;2023-09-08T06:21:44;9.30;;;6.32;;
7253;SDS011;4060;49.186;9.226;2023-09-08T06:24:14;7.03;;;6.32;;
7253;SDS011;4060;49.186;9.226;2023-09-08T06:26:44;6.30;;;5.70;;
7253;SDS011;4060;49.186;9.226;2023-09-08T06:29:15;6.65;;;6.05;;
7253;SDS011;4060;49.186;9.226;2023-09-08T06:31:45;6.22;;;5.63;;
7253;SDS011;4060;49.186;9.226;2023-09-08T06:34:14;6.72;;;6.22;;
7253;SDS011;4060;49.186;9.226;2023-09-08T06:36:47;6.22;;;5.72;;
7253;SDS011;4060;49.186;9.226;2023-09-08T06:39:16;6.43;;;5.82;;
7253;SDS011;4060;49.186;9.226;2023-09-08T06:41:48;5.88;;;5.38;;
7253;SDS011;4060;49.186;9.226;2023-09-08T06:44:18;6.68;;;5.80;;
7253;SDS011;4060;49.186;9.226;2023-09-08T06:46:49;5.97;;;5.18;;
7253;SDS011;4060;49.186;9.226;2023-09-08T06:49:18;6.20;;;5.70;;
7253;SDS011;4060;49.186;9.226;2023-09-08T06:51:48;6.57;;;5.78;;
7253;SDS011;4060;49.186;9.226;2023-09-08T06:54:18;6.30;;;5.70;;
7253;SDS011;4060;49.186;9.226;2023-09-08T06:56:49;5.97;;;5.47;;
7253;SDS011;4060;49.186;9.226;2023-09-08T06:59:19;6.50;;;5.90;;
7253;SDS011;4060;49.186;9.226;2023-09-08T07:01:48;6.55;;;5.30;;
7253;SDS011;4060;49.186;9.226;2023-09-08T07:04:18;6.28;;;5.75;;
7253;SDS011;4060;49.186;9.226;2023-09-08T07:06:47;7.80;;;6.10;;
7253;SDS011;4060;49.186;9.226;2023-09-08T07:09:18;9.45;;;5.35;;
7253;SDS011;4060;49.186;9.226;2023-09-08T07:11:49;5.63;;;5.22;;
7253;SDS011;4060;49.186;9.226;2023-09-08T07:14:18;6.00;;;5.40;;
7253;SDS011;4060;49.186;9.226;2023-09-08T07:16:48;6.78;;;5.43;;
7253;SDS011;4060;49.186;9.226;2023-09-08T07:19:18;6.03;;;5.53;;
7253;SDS011;4060;49.186;9.226;2023-09-08T07:21:48;6.03;;;5.50;;
7253;SDS011;4060;49.186;9.226;2023-09-08T07:24:17;5.85;;;5.28;;
7253;SDS011;4060;49.186;9.226;2023-09-08T07:26:47;5.93;;;5.40;;
7253;SDS011;4060;49.186;9.226;2023-09-08T07:29:18;6.28;;;5.70;;
7253;SDS011;4060;49.186;9.226;2023-09-08T07:31:48;6.10;;;5.60;;
7253;SDS011;4060;49.186;9.226;2023-09-08T07:34:17;6.13;;;5.53;;
7253;SDS011;4060;49.186;9.226;2023-09-08T07:36:47;6.65;;;6.05;;
7253;SDS011;4060;49.186;9.226;2023-09-08T07:39:16;6.70;;;5.82;;
7253;SDS011;4060;49.186;9.226;2023-09-08T07:41:46;6.95;;;6.35;;
7253;SDS011;4060;49.186;9.226;2023-09-08T07:44:18;6.68;;;6.00;;
7253;SDS011;4060;49.186;9.226;2023-09-08T07:46:47;6.55;;;5.97;;
7253;SDS011;4060;49.186;9.226;2023-09-08T07:49:17;6.43;;;5.68;;
7253;SDS011;4060;49.186;9.226;2023-09-08T07:51:47;5.65;;;5.15;;
7253;SDS011;4060;49.186;9.226;2023-09-08T07:54:17;5.20;;;4.70;;
7253;SDS011;4060;49.186;9.226;2023-09-08T07:56:47;5.90;;;5.43;;
7253;SDS011;4060;49.186;9.226;2023-09-08T07:59:18;6.47;;;5.88;;
7253;SDS011;4060;49.186;9.226;2023-09-08T08:01:48;5.95;;;5.35;;
7253;SDS011;4060;49.186;9.226;2023-09-08T08:04:18;6.05;;;5.40;;
7253;SDS011;4060;49.186;9.226;2023-09-08T08:06:47;6.20;;;5.50;;
7253;SDS011;4060;49.186;9.226;2023-09-08T08:09:18;5.82;;;5.32;;
7253;SDS011;4060;49.186;9.226;2023-09-08T08:11:47;5.88;;;5.38;;
7253;SDS011;4060;49.186;9.226;2023-09-08T08:14:19;7.32;;;5.10;;
7253;SDS011;4060;49.186;9.226;2023-09-08T08:16:48;5.78;;;5.28;;
7253;SDS011;4060;49.186;9.226;2023-09-08T08:19:18;5.53;;;5.00;;
7253;SDS011;4060;49.186;9.226;2023-09-08T08:21:48;5.72;;;5.20;;
7253;SDS011;4060;49.186;9.226;2023-09-08T08:24:17;6.82;;;5.22;;
7253;SDS011;4060;49.186;9.226;2023-09-08T08:26:47;5.88;;;4.95;;
7253;SDS011;4060;49.186;9.226;2023-09-08T08:29:19;5.30;;;4.80;;
7253;SDS011;4060;49.186;9.226;2023-09-08T08:31:49;6.05;;;5.25;;
7253;SDS011;4060;49.186;9.226;2023-09-08T08:34:19;5.82;;;5.32;;
7253;SDS011;4060;49.186;9.226;2023-09-08T08:36:54;5.72;;;5.22;;
7253;SDS011;4060;49.186;9.226;2023-09-08T08:39:24;5.38;;;4.72;;
7253;SDS011;4060;49.186;9.226;2023-09-08T08:41:54;5.85;;;5.35;;
7253;SDS011;4060;49.186;9.226;2023-09-08T08:44:26;5.93;;;5.32;;
7253;SDS011;4060;49.186;9.226;2023-09-08T08:46:55;5.80;;;5.18;;
7253;SDS011;4060;49.186;9.226;2023-09-08T08:49:25;5.85;;;5.30;;
7253;SDS011;4060;49.186;9.226;2023-09-08T08:51:56;5.72;;;5.22;;
7253;SDS011;4060;49.186;9.226;2023-09-08T08:54:33;5.30;;;4.80;;
7253;SDS011;4060;49.186;9.226;2023-09-08T08:57:04;5.18;;;4.68;;
7253;SDS011;4060;49.186;9.226;2023-09-08T08:59:36;5.25;;;4.75;;
7253;SDS011;4060;49.186;9.226;2023-09-08T09:02:07;10.27;;;5.00;;
7253;SDS011;4060;49.186;9.226;2023-09-08T09:04:40;5.75;;;5.03;;
7253;SDS011;4060;49.186;9.226;2023-09-08T09:07:10;5.68;;;5.15;;
7253;SDS011;4060;49.186;9.226;2023-09-08T09:09:40;6.00;;;4.93;;
7253;SDS011;4060;49.186;9.226;2023-09-08T09:12:10;5.30;;;4.80;;
7253;SDS011;4060;49.186;9.226;2023-09-08T09:14:41;5.82;;;4.75;;
7253;SDS011;4060;49.186;9.226;2023-09-08T09:17:15;5.43;;;4.60;;
7253;SDS011;4060;49.186;9.226;2023-09-08T09:19:44;5.45;;;4.18;;
7253;SDS011;4060;49.186;9.226;2023-09-08T09:22:13;5.15;;;4.55;;
7253;SDS011;4060;49.186;9.226;2023-09-08T09:24:48;5.10;;;4.70;;
7253;SDS011;4060;49.186;9.226;2023-09-08T09:27:18;5.38;;;4.32;;
7253;SDS011;4060;49.186;9.226;2023-09-08T09:29:51;6.05;;;5.45;;
7253;SDS011;4060;49.186;9.226;2023-09-08T09:32:23;5.53;;;4.97;;
7253;SDS011;4060;49.186;9.226;2023-09-08T09:34:55;6.43;;;4.43;;
7253;SDS011;4060;49.186;9.226;2023-09-08T09:37:27;5.15;;;4.50;;
7253;SDS011;4060;49.186;9.226;2023-09-08T09:39:59;5.03;;;4.55;;
7253;SDS011;4060;49.186;9.226;2023-09-08T09:42:34;6.53;;;5.38;;
7253;SDS011;4060;49.186;9.226;2023-09-08T09:45:08;4.97;;;4.57;;
7253;SDS011;4060;49.186;9.226;2023-09-08T09:47:38;5.75;;;5.05;;
7253;SDS011;4060;49.186;9.226;2023-09-08T09:50:07;5.30;;;4.75;;
7253;SDS011;4060;49.186;9.226;2023-09-08T09:52:39;5.18;;;4.65;;
7253;SDS011;4060;49.186;9.226;2023-09-08T09:55:08;6.05;;;4.45;;
7253;SDS011;4060;49.186;9.226;2023-09-08T09:57:39;5.90;;;4.45;;
7253;SDS011;4060;49.186;9.226;2023-09-08T10:00:11;6.53;;;5.07;;
7253;SDS011;4060;49.186;9.226;2023-09-08T10:02:42;5.25;;;4.78;;
7253;SDS011;4060;49.186;9.226;2023-09-08T10:05:13;6.53;;;5.10;;
7253;SDS011;4060;49.186;9.226;2023-09-08T10:07:42;5.63;;;5.07;;
7253;SDS011;4060;49.186;9.226;2023-09-08T10:10:14;5.25;;;4.18;;
7253;SDS011;4060;49.186;9.226;2023-09-08T10:12:45;5.40;;;4.93;;
7253;SDS011;4060;49.186;9.226;2023-09-08T10:15:20;4.60;;;4.20;;
7253;SDS011;4060;49.186;9.226;2023-09-08T10:17:52;5.35;;;4.82;;
7253;SDS011;4060;49.186;9.226;2023-09-08T10:20:23;5.53;;;4.40;;
7253;SDS011;4060;49.186;9.226;2023-09-08T10:22:54;8.20;;;4.80;;
7253;SDS011;4060;49.186;9.226;2023-09-08T10:25:31;4.95;;;4.55;;
7253;SDS011;4060;49.186;9.226;2023-09-08T10:28:03;5.10;;;4.38;;
7253;SDS011;4060;49.186;9.226;2023-09-08T10:30:35;5.15;;;4.75;;
7253;SDS011;4060;49.186;9.226;2023-09-08T10:33:05;5.00;;;4.60;;
7253;SDS011;4060;49.186;9.226;2023-09-08T10:35:35;5.03;;;4.60;;
7253;SDS011;4060;49.186;9.226;2023-09-08T10:40:53;5.25;;;4.72;;
7253;SDS011;4060;49.186;9.226;2023-09-08T10:43:47;4.93;;;4.13;;
7253;SDS011;4060;49.186;9.226;2023-09-08T10:46:28;4.88;;;4.45;;
7253;SDS011;4060;49.186;9.226;2023-09-08T10:49:02;4.40;;;4.10;;
7253;SDS011;4060;49.186;9.226;2023-09-08T10:51:33;4.93;;;4.32;;
7253;SDS011;4060;49.186;9.226;2023-09-08T10:54:04;4.70;;;4.28;;
7253;SDS011;4060;49.186;9.226;2023-09-08T10:59:28;5.15;;;4.65;;
7253;SDS011;4060;49.186;9.226;2023-09-08T11:02:05;4.70;;;4.30;;
7253;SDS011;4060;49.186;9.226;2023-09-08T11:04:34;5.18;;;4.30;;
7253;SDS011;4060;49.186;9.226;2023-09-08T11:07:07;4.80;;;4.40;;
7253;SDS011;4060;49.186;9.226;2023-09-08T11:09:37;4.70;;;4.07;;
7253;SDS011;4060;49.186;9.226;2023-09-08T11:12:07;4.88;;;4.47;;
7253;SDS011;4060;49.186;9.226;2023-09-08T11:14:38;4.55;;;4.15;;
7253;SDS011;4060;49.186;9.226;2023-09-08T11:17:09;6.85;;;4.63;;
7253;SDS011;4060;49.186;9.226;2023-09-08T11:19:44;4.80;;;4.38;;
7253;SDS011;4060;49.186;9.226;2023-09-08T11:22:15;4.55;;;4.15;;
7253;SDS011;4060;49.186;9.226;2023-09-08T11:24:45;5.10;;;4.50;;
7253;SDS011;4060;49.186;9.226;2023-09-08T11:27:14;6.32;;;4.50;;
7253;SDS011;4060;49.186;9.226;2023-09-08T11:29:44;5.65;;;4.38;;
7253;SDS011;4060;49.186;9.226;2023-09-08T11:32:15;4.70;;;4.30;;
7253;SDS011;4060;49.186;9.226;2023-09-08T11:34:45;4.65;;;4.20;;
7253;SDS011;4060;49.186;9.226;2023-09-08T11:37:15;5.35;;;4.57;;
7253;SDS011;4060;49.186;9.226;2023-09-08T11:39:46;4.88;;;4.43;;
7253;SDS011;4060;49.186;9.226;2023-09-08T11:42:15;4.45;;;4.05;;
7253;SDS011;4060;49.186;9.226;2023-09-08T11:44:47;5.93;;;4.25;;
7253;SDS011;4060;49.186;9.226;2023-09-08T11:47:19;5.00;;;4.35;;
7253;SDS011;4060;49.186;9.226;2023-09-08T11:49:48;5.38;;;4.47;;
7253;SDS011;4060;49.186;9.226;2023-09-08T11:52:26;4.65;;;4.25;;
7253;SDS011;4060;49.186;9.226;2023-09-08T11:54:55;4.82;;;4.35;;
7253;SDS011;4060;49.186;9.226;2023-09-08T11:57:25;4.93;;;4.30;;
7253;SDS011;4060;49.186;9.226;2023-09-08T11:59:57;6.75;;;4.57;;
7253;SDS011;4060;49.186;9.226;2023-09-08T12:02:36;4.53;;;4.20;;
7253;SDS011;4060;49.186;9.226;2023-09-08T12:05:06;8.02;;;4.30;;
7253;SDS011;4060;49.186;9.226;2023-09-08T12:07:41;4.85;;;3.97;;
7253;SDS011;4060;49.186;9.226;2023-09-08T12:10:11;8.10;;;4.30;;
7253;SDS011;4060;49.186;9.226;2023-09-08T12:12:44;6.13;;;4.50;;
7253;SDS011;4060;49.186;9.226;2023-09-08T12:18:05;4.60;;;4.20;;
7253;SDS011;4060;49.186;9.226;2023-09-08T12:20:37;5.03;;;4.53;;
7253;SDS011;4060;49.186;9.226;2023-09-08T12:23:17;5.28;;;4.22;;
7253;SDS011;4060;49.186;9.226;2023-09-08T12:25:50;4.97;;;4.15;;
7253;SDS011;4060;49.186;9.226;2023-09-08T12:28:21;4.13;;;3.80;;
7253;SDS011;4060;49.186;9.226;2023-09-08T12:30:50;4.80;;;4.38;;
7253;SDS011;4060;49.186;9.226;2023-09-08T12:33:22;5.38;;;4.68;;
7253;SDS011;4060;49.186;9.226;2023-09-08T12:35:53;5.53;;;4.38;;
7253;SDS011;4060;49.186;9.226;2023-09-08T12:38:23;4.47;;;4.10;;
7253;SDS011;4060;49.186;9.226;2023-09-08T12:40:59;4.65;;;4.25;;
7253;SDS011;4060;49.186;9.226;2023-09-08T12:43:28;5.35;;;4.18;;
7253;SDS011;4060;49.186;9.226;2023-09-08T12:45:58;5.82;;;4.57;;
7253;SDS011;4060;49.186;9.226;2023-09-08T12:48:30;4.82;;;4.38;;
7253;SDS011;4060;49.186;9.226;2023-09-08T12:50:59;4.22;;;3.83;;
7253;SDS011;4060;49.186;9.226;2023-09-08T12:53:29;5.13;;;4.60;;
7253;SDS011;4060;49.186;9.226;2023-09-08T12:56:01;4.30;;;3.90;;
7253;SDS011;4060;49.186;9.226;2023-09-08T12:58:30;4.32;;;3.92;;
7253;SDS011;4060;49.186;9.226;2023-09-08T13:01:00;4.30;;;3.90;;
7253;SDS011;4060;49.186;9.226;2023-09-08T13:03:33;5.40;;;4.10;;
7253;SDS011;4060;49.186;9.226;2023-09-08T13:06:02;4.22;;;3.90;;
7253;SDS011;4060;49.186;9.226;2023-09-08T13:08:32;5.07;;;4.20;;
7253;SDS011;4060;49.186;9.226;2023-09-08T13:11:01;4.40;;;3.88;;
7253;SDS011;4060;49.186;9.226;2023-09-08T13:13:31;4.47;;;3.97;;
7253;SDS011;4060;49.186;9.226;2023-09-08T13:16:00;4.60;;;4.20;;
7253;SDS011;4060;49.186;9.226;2023-09-08T13:18:29;5.53;;;4.10;;
7253;SDS011;4060;49.186;9.226;2023-09-08T13:21:05;4.93;;;4.53;;
7253;SDS011;4060;49.186;9.226;2023-09-08T13:23:34;5.78;;;4.55;;
7253;SDS011;4060;49.186;9.226;2023-09-08T13:26:04;4.78;;;4.38;;
7253;SDS011;4060;49.186;9.226;2023-09-08T13:28:34;4.38;;;3.67;;
7253;SDS011;4060;49.186;9.226;2023-09-08T13:31:03;4.35;;;3.95;;
7253;SDS011;4060;49.186;9.226;2023-09-08T13:33:35;5.25;;;4.75;;
7253;SDS011;4060;49.186;9.226;2023-09-08T13:36:04;5.43;;;4.13;;
7253;SDS011;4060;49.186;9.226;2023-09-08T13:38:35;5.20;;;4.60;;
7253;SDS011;4060;49.186;9.226;2023-09-08T13:41:04;6.45;;;4.07;;
7253;SDS011;4060;49.186;9.226;2023-09-08T13:43:34;5.40;;;4.90;;
7253;SDS011;4060;49.186;9.226;2023-09-08T13:46:03;4.90;;;4.50;;
7253;SDS011;4060;49.186;9.226;2023-09-08T13:48:35;5.97;;;4.07;;
7253;SDS011;4060;49.186;9.226;2023-09-08T13:51:04;4.30;;;4.00;;
7253;SDS011;4060;49.186;9.226;2023-09-08T13:53:34;5.05;;;4.13;;
7253;SDS011;4060;49.186;9.226;2023-09-08T13:56:04;4.25;;;3.85;;
7253;SDS011;4060;49.186;9.226;2023-09-08T13:58:34;5.00;;;4.50;;
7253;SDS011;4060;49.186;9.226;2023-09-08T14:01:04;4.47;;;3.95;;
7253;SDS011;4060;49.186;9.226;2023-09-08T14:03:35;4.72;;;4.32;;
7253;SDS011;4060;49.186;9.226;2023-09-08T14:06:04;4.30;;;4.00;;
7253;SDS011;4060;49.186;9.226;2023-09-08T14:08:34;5.38;;;4.80;;
7253;SDS011;4060;49.186;9.226;2023-09-08T14:11:04;4.40;;;4.07;;
7253;SDS011;4060;49.186;9.226;2023-09-08T14:13:33;5.10;;;4.60;;
7253;SDS011;4060;49.186;9.226;2023-09-08T14:16:03;5.05;;;4.55;;
7253;SDS011;4060;49.186;9.226;2023-09-08T14:18:32;4.93;;;4.53;;
7253;SDS011;4060;49.186;9.226;2023-09-08T14:21:04;4.65;;;4.25;;
7253;SDS011;4060;49.186;9.226;2023-09-08T14:23:35;4.88;;;4.47;;
7253;SDS011;4060;49.186;9.226;2023-09-08T14:26:06;4.93;;;4.53;;
7253;SDS011;4060;49.186;9.226;2023-09-08T14:28:35;5.28;;;4.60;;
7253;SDS011;4060;49.186;9.226;2023-09-08T14:31:04;4.38;;;3.97;;
7253;SDS011;4060;49.186;9.226;2023-09-08T14:33:36;4.60;;;4.30;;
7253;SDS011;4060;49.186;9.226;2023-09-08T14:36:05;4.00;;;3.70;;
7253;SDS011;4060;49.186;9.226;2023-09-08T14:38:35;4.82;;;4.38;;
7253;SDS011;4060;49.186;9.226;2023-09-08T14:41:04;4.57;;;4.05;;
7253;SDS011;4060;49.186;9.226;2023-09-08T14:43:34;4.65;;;4.28;;
7253;SDS011;4060;49.186;9.226;2023-09-08T14:46:03;5.38;;;4.25;;
7253;SDS011;4060;49.186;9.226;2023-09-08T14:48:33;5.03;;;4.63;;
7253;SDS011;4060;49.186;9.226;2023-09-08T14:51:04;4.60;;;4.20;;
7253;SDS011;4060;49.186;9.226;2023-09-08T14:53:34;4.68;;;4.18;;
7253;SDS011;4060;49.186;9.226;2023-09-08T14:56:04;4.15;;;3.85;;
7253;SDS011;4060;49.186;9.226;2023-09-08T14:58:33;4.82;;;4.28;;
7253;SDS011;4060;49.186;9.226;2023-09-08T15:01:03;4.78;;;4.28;;
7253;SDS011;4060;49.186;9.226;2023-09-08T15:03:34;5.00;;;4.55;;
7253;SDS011;4060;49.186;9.226;2023-09-08T15:06:06;4.95;;;4.43;;
7253;SDS011;4060;49.186;9.226;2023-09-08T15:08:38;4.63;;;4.22;;
7253;SDS011;4060;49.186;9.226;2023-09-08T15:11:09;5.25;;;4.53;;
7253;SDS011;4060;49.186;9.226;2023-09-08T15:13:38;4.40;;;4.10;;
7253;SDS011;4060;49.186;9.226;2023-09-08T15:16:08;4.75;;;4.40;;
7253;SDS011;4060;49.186;9.226;2023-09-08T15:18:40;5.10;;;4.40;;
7253;SDS011;4060;49.186;9.226;2023-09-08T15:21:10;4.65;;;4.20;;
7253;SDS011;4060;49.186;9.226;2023-09-08T15:23:40;4.55;;;4.13;;
7253;SDS011;4060;49.186;9.226;2023-09-08T15:26:10;4.60;;;4.20;;
7253;SDS011;4060;49.186;9.226;2023-09-08T15:28:39;4.85;;;4.35;;
7253;SDS011;4060;49.186;9.226;2023-09-08T15:31:09;4.57;;;4.22;;
7253;SDS011;4060;49.186;9.226;2023-09-08T15:33:40;5.07;;;4.57;;
7253;SDS011;4060;49.186;9.226;2023-09-08T15:36:10;4.03;;;3.72;;
7253;SDS011;4060;49.186;9.226;2023-09-08T15:38:40;4.50;;;4.20;;
7253;SDS011;4060;49.186;9.226;2023-09-08T15:41:14;4.38;;;3.97;;
7253;SDS011;4060;49.186;9.226;2023-09-08T15:43:48;4.60;;;4.30;;